Time;durP1;ratioP1;P1;durP2;ratioP2;P2;SDS_P1;SDS_P2;PMS_P1;PMS_P2;Temp;Humidity;BMP_temperature;BMP_pressure;BME280_temperature;BME280_humidity;BME280_pressure;Samples;Min_cycle;Max_cycle;Signal;HPM_P1;HPM_P2
2023/12/17 00:01:08;;;;;;;5.65;4.93;;;10.90;99.90;;;;;;5061573;28;20033;-37
2023/12/17 00:03:33;;;;;;;4.40;4.00;;;10.80;99.90;;;;;;5060911;28;20055;-37
2023/12/17 00:05:59;;;;;;;4.63;3.88;;;10.90;99.90;;;;;;5060842;28;20028;-36
2023/12/17 00:08:25;;;;;;;3.78;3.47;;;10.90;99.90;;;;;;5060968;28;20570;-36
2023/12/17 00:10:52;;;;;;;4.18;3.78;;;10.90;99.90;;;;;;5061255;28;20059;-37
2023/12/17 00:13:18;;;;;;;5.68;4.70;;;10.90;99.90;;;;;;5061478;28;20819;-36
2023/12/17 00:15:44;;;;;;;5.43;4.32;;;10.90;99.90;;;;;;5060558;28;20039;-36
2023/12/17 00:18:11;;;;;;;5.07;4.57;;;10.90;99.90;;;;;;5061573;28;20021;-36
2023/12/17 00:20:37;;;;;;;5.00;4.50;;;10.90;99.90;;;;;;5060231;28;20481;-37
2023/12/17 00:23:04;;;;;;;4.47;3.80;;;10.90;99.90;;;;;;5060447;28;20733;-37
2023/12/17 00:25:30;;;;;;;4.63;4.20;;;10.90;99.90;;;;;;5061181;28;20086;-37
2023/12/17 00:27:56;;;;;;;4.47;3.92;;;10.90;99.90;;;;;;5059836;28;20020;-35
2023/12/17 00:30:21;;;;;;;4.45;4.05;;;10.90;99.90;;;;;;5060697;28;20420;-43
2023/12/17 00:32:47;;;;;;;4.47;3.50;;;10.90;99.90;;;;;;5061013;28;20411;-36
2023/12/17 00:35:12;;;;;;;4.38;3.90;;;10.90;99.90;;;;;;5059887;28;20132;-35
2023/12/17 00:37:38;;;;;;;4.65;3.50;;;10.90;99.90;;;;;;5061360;28;20753;-35
2023/12/17 00:40:05;;;;;;;4.25;3.85;;;10.90;99.90;;;;;;5060022;28;20036;-36
2023/12/17 00:42:30;;;;;;;5.65;4.85;;;10.90;99.90;;;;;;5060100;28;20490;-36
2023/12/17 00:44:56;;;;;;;4.38;3.97;;;10.90;99.90;;;;;;5060837;28;20028;-36
2023/12/17 00:47:21;;;;;;;4.60;3.92;;;10.90;99.90;;;;;;5061327;28;20439;-36
2023/12/17 00:49:47;;;;;;;4.75;4.28;;;10.90;99.90;;;;;;5059820;28;20032;-36
2023/12/17 00:52:13;;;;;;;4.95;4.30;;;10.90;99.90;;;;;;5060615;28;20129;-36
2023/12/17 00:54:39;;;;;;;5.28;4.05;;;10.90;99.90;;;;;;5060139;28;20094;-36
2023/12/17 00:57:04;;;;;;;6.40;4.10;;;10.90;99.90;;;;;;5058648;28;20432;-35
2023/12/17 00:59:30;;;;;;;5.28;4.03;;;10.90;99.90;;;;;;5058915;28;20507;-35
2023/12/17 01:01:55;;;;;;;4.53;4.00;;;10.90;99.90;;;;;;5059399;28;20033;-35
2023/12/17 01:04:21;;;;;;;3.97;3.38;;;10.90;99.90;;;;;;5058790;28;20020;-44
2023/12/17 01:06:46;;;;;;;4.35;3.95;;;10.90;99.90;;;;;;5059445;28;20055;-37
2023/12/17 01:09:12;;;;;;;4.32;3.90;;;10.90;99.90;;;;;;5059095;28;20049;-36
2023/12/17 01:11:38;;;;;;;4.15;3.75;;;10.90;99.90;;;;;;5060037;28;20080;-35
2023/12/17 01:14:03;;;;;;;4.03;3.63;;;11.00;99.90;;;;;;5061060;28;20048;-37
2023/12/17 01:16:32;;;;;;;4.00;3.30;;;11.00;99.90;;;;;;5060931;28;20036;-41
2023/12/17 01:18:57;;;;;;;3.72;3.17;;;11.00;99.90;;;;;;5060360;28;20064;-36
2023/12/17 01:21:23;;;;;;;3.60;3.15;;;11.00;99.90;;;;;;5060211;28;20119;-36
2023/12/17 01:23:49;;;;;;;3.25;2.97;;;11.00;99.90;;;;;;5059713;28;20115;-37
2023/12/17 01:26:20;;;;;;;4.10;3.70;;;11.00;99.90;;;;;;5059808;28;20093;-36
2023/12/17 01:28:46;;;;;;;4.68;3.00;;;11.00;99.90;;;;;;5060565;28;20025;-36
2023/12/17 01:31:12;;;;;;;3.50;3.08;;;11.00;99.90;;;;;;5059289;28;20036;-36
2023/12/17 01:33:37;;;;;;;2.95;2.65;;;10.90;99.90;;;;;;5060387;28;20044;-35
2023/12/17 01:36:03;;;;;;;4.25;3.40;;;10.90;99.90;;;;;;5060296;28;20375;-37
2023/12/17 01:38:29;;;;;;;4.05;3.45;;;10.90;99.90;;;;;;5060619;28;20017;-36
2023/12/17 01:40:54;;;;;;;3.50;3.17;;;10.90;99.90;;;;;;5060734;28;20042;-38
2023/12/17 01:43:20;;;;;;;4.57;3.75;;;10.90;99.90;;;;;;5060469;28;20028;-36
2023/12/17 01:45:45;;;;;;;4.25;3.60;;;10.90;99.90;;;;;;5060348;28;20052;-36
2023/12/17 01:48:11;;;;;;;4.10;3.70;;;10.90;99.90;;;;;;5060297;28;20554;-36
2023/12/17 01:50:37;;;;;;;4.45;3.17;;;10.90;99.90;;;;;;5060077;28;20052;-36
2023/12/17 01:53:04;;;;;;;3.90;3.50;;;10.90;99.90;;;;;;5059074;28;20128;-36
2023/12/17 01:55:30;;;;;;;3.45;2.80;;;10.90;99.90;;;;;;5060131;28;20032;-37
2023/12/17 01:57:57;;;;;;;5.40;3.00;;;10.90;99.90;;;;;;5060034;28;20025;-36
2023/12/17 02:00:23;;;;;;;4.00;2.60;;;10.90;99.90;;;;;;5060102;28;20028;-36
2023/12/17 02:02:49;;;;;;;3.72;2.60;;;10.90;99.90;;;;;;5060896;28;20744;-37
2023/12/17 02:05:15;;;;;;;3.33;2.90;;;10.90;99.90;;;;;;5060937;28;20662;-37
2023/12/17 02:07:44;;;;;;;3.25;2.75;;;10.90;99.90;;;;;;5059989;28;20041;-36
2023/12/17 02:10:10;;;;;;;2.75;2.53;;;10.90;99.90;;;;;;5060131;28;20028;-36
2023/12/17 02:12:36;;;;;;;2.60;2.40;;;10.90;99.90;;;;;;5060137;28;20032;-45
2023/12/17 02:15:01;;;;;;;3.70;2.80;;;10.90;99.90;;;;;;5060040;28;20028;-38
2023/12/17 02:17:31;;;;;;;3.42;3.13;;;10.90;99.90;;;;;;5059631;28;20025;-35
2023/12/17 02:19:57;;;;;;;3.30;2.65;;;10.90;99.90;;;;;;5059207;28;20021;-36
2023/12/17 02:22:24;;;;;;;4.22;3.00;;;10.90;99.90;;;;;;5059934;28;20116;-36
2023/12/17 02:24:53;;;;;;;4.18;3.10;;;10.90;99.90;;;;;;5060186;28;20029;-36
2023/12/17 02:27:23;;;;;;;3.25;2.45;;;10.90;99.90;;;;;;5059893;28;20024;-36
2023/12/17 02:29:54;;;;;;;4.47;3.40;;;10.90;99.90;;;;;;5060790;28;20028;-38
2023/12/17 02:32:22;;;;;;;4.03;3.10;;;10.90;99.90;;;;;;5060783;28;20111;-36
2023/12/17 02:34:49;;;;;;;3.08;2.75;;;10.90;99.90;;;;;;5059248;28;20104;-36
2023/12/17 02:37:15;;;;;;;5.57;3.28;;;10.90;99.90;;;;;;5059780;28;20473;-36
2023/12/17 02:39:40;;;;;;;3.90;3.20;;;10.90;99.90;;;;;;5062132;28;20090;-36
2023/12/17 02:42:07;;;;;;;4.18;2.42;;;10.80;99.90;;;;;;5063173;28;20509;-37
2023/12/17 02:44:32;;;;;;;3.95;2.58;;;10.80;99.90;;;;;;5062114;28;20111;-37
2023/12/17 02:46:58;;;;;;;3.75;2.92;;;10.90;99.90;;;;;;5063878;28;20073;-47
2023/12/17 02:49:24;;;;;;;3.20;2.55;;;10.90;99.90;;;;;;5062621;28;20024;-36
2023/12/17 02:51:50;;;;;;;4.60;2.83;;;10.90;99.90;;;;;;5063907;28;20076;-37
2023/12/17 02:54:20;;;;;;;6.35;3.58;;;10.90;99.90;;;;;;5063840;28;20099;-36
2023/12/17 02:56:46;;;;;;;5.32;3.75;;;10.90;99.90;;;;;;5063276;28;20115;-36
2023/12/17 02:59:12;;;;;;;6.05;3.60;;;10.90;99.90;;;;;;5063629;28;20525;-36
2023/12/17 03:01:42;;;;;;;4.65;3.28;;;10.90;99.90;;;;;;5063361;28;20138;-38
2023/12/17 03:04:10;;;;;;;6.45;3.85;;;10.90;99.90;;;;;;5062048;28;20031;-36
2023/12/17 03:06:39;;;;;;;4.72;3.70;;;10.90;99.90;;;;;;5062884;28;20024;-43
2023/12/17 03:09:06;;;;;;;6.38;4.28;;;10.90;99.90;;;;;;5062202;28;20013;-36
2023/12/17 03:11:32;;;;;;;5.00;4.00;;;11.00;99.90;;;;;;5062866;28;20025;-36
2023/12/17 03:13:58;;;;;;;5.72;4.53;;;10.90;99.90;;;;;;5062006;28;20288;-36
2023/12/17 03:16:25;;;;;;;7.60;4.88;;;10.90;99.90;;;;;;5062557;28;20039;-36
2023/12/17 03:18:52;;;;;;;6.25;4.65;;;10.90;99.90;;;;;;5062747;28;20103;-36
2023/12/17 03:21:17;;;;;;;5.13;4.32;;;10.90;99.90;;;;;;5062729;28;20029;-36
2023/12/17 03:23:43;;;;;;;6.55;4.60;;;10.90;99.90;;;;;;5062391;28;20133;-35
2023/12/17 03:26:09;;;;;;;5.63;4.95;;;10.90;99.90;;;;;;5061796;28;20032;-36
2023/12/17 03:28:34;;;;;;;6.00;4.22;;;10.90;99.90;;;;;;5061935;28;20034;-36
2023/12/17 03:31:00;;;;;;;6.45;4.57;;;10.90;99.90;;;;;;5061407;28;20383;-36
2023/12/17 03:33:25;;;;;;;5.78;4.60;;;10.90;99.90;;;;;;5063128;28;20578;-35
2023/12/17 03:35:51;;;;;;;5.50;4.80;;;10.90;99.90;;;;;;5061518;28;20039;-35
2023/12/17 03:38:20;;;;;;;5.15;4.43;;;10.90;99.90;;;;;;5060750;28;20585;-35
2023/12/17 03:40:45;;;;;;;5.30;4.78;;;10.90;99.90;;;;;;5061140;28;20178;-36
2023/12/17 03:43:11;;;;;;;5.05;4.20;;;10.90;99.90;;;;;;5061104;28;20020;-41
2023/12/17 03:45:37;;;;;;;4.78;4.28;;;10.90;99.90;;;;;;5059246;28;20840;-36
2023/12/17 03:48:05;;;;;;;5.60;3.70;;;10.90;99.90;;;;;;5062976;28;20032;-36
2023/12/17 03:50:30;;;;;;;5.90;4.07;;;10.90;99.90;;;;;;5060016;28;20020;-36
2023/12/17 03:52:56;;;;;;;4.45;3.55;;;10.90;99.90;;;;;;5060739;28;20075;-37
2023/12/17 03:55:21;;;;;;;4.38;3.60;;;10.90;99.90;;;;;;5061550;28;20510;-41
2023/12/17 03:57:50;;;;;;;5.80;4.00;;;10.90;99.90;;;;;;5062391;28;20106;-36
2023/12/17 04:00:15;;;;;;;5.22;4.15;;;10.90;99.90;;;;;;5061376;28;20055;-36
2023/12/17 04:02:41;;;;;;;6.07;3.97;;;10.90;99.90;;;;;;5061848;28;20851;-45
2023/12/17 04:05:08;;;;;;;5.70;3.92;;;10.90;99.90;;;;;;5061044;28;20025;-36
2023/12/17 04:07:34;;;;;;;4.95;4.28;;;10.90;99.90;;;;;;5060004;28;20055;-37
2023/12/17 04:10:01;;;;;;;4.32;3.65;;;10.90;99.90;;;;;;5060881;28;20036;-36
2023/12/17 04:12:26;;;;;;;3.72;3.35;;;10.90;99.90;;;;;;5060372;28;20017;-37
2023/12/17 04:14:52;;;;;;;4.90;3.30;;;10.90;99.90;;;;;;5060076;28;20047;-36
2023/12/17 04:17:18;;;;;;;6.20;3.28;;;10.90;99.90;;;;;;5061498;28;20013;-37
2023/12/17 04:19:43;;;;;;;4.45;3.20;;;10.90;99.90;;;;;;5060767;28;20025;-36
2023/12/17 04:22:09;;;;;;;5.43;3.03;;;10.90;99.90;;;;;;5061236;28;20464;-36
2023/12/17 04:24:35;;;;;;;5.75;3.40;;;10.90;99.90;;;;;;5061647;28;20064;-37
2023/12/17 04:27:00;;;;;;;4.60;3.30;;;10.80;99.90;;;;;;5060206;28;20039;-36
2023/12/17 04:29:26;;;;;;;4.28;3.60;;;10.80;99.90;;;;;;5061703;28;20031;-37
2023/12/17 04:31:52;;;;;;;4.38;3.53;;;10.80;99.90;;;;;;5061304;28;20066;-37
2023/12/17 04:34:17;;;;;;;3.90;3.22;;;10.80;99.90;;;;;;5061186;28;20017;-37
2023/12/17 04:36:43;;;;;;;3.50;3.10;;;10.80;99.90;;;;;;5061506;28;20031;-36
2023/12/17 04:39:09;;;;;;;3.70;3.22;;;10.80;99.90;;;;;;5060823;28;20029;-37
2023/12/17 04:41:38;;;;;;;4.68;3.70;;;10.80;99.90;;;;;;5061303;28;20032;-36
2023/12/17 04:44:04;;;;;;;6.72;4.50;;;10.70;99.90;;;;;;5060701;28;20123;-36
2023/12/17 04:46:30;;;;;;;5.07;4.45;;;10.70;99.90;;;;;;5061376;28;20138;-37
2023/12/17 04:48:56;;;;;;;5.18;4.55;;;10.70;99.90;;;;;;5060583;28;20477;-40
2023/12/17 04:51:22;;;;;;;4.85;3.95;;;10.70;99.90;;;;;;5061367;28;20059;-36
2023/12/17 04:53:49;;;;;;;6.53;4.05;;;10.70;99.90;;;;;;5061211;28;20032;-37
2023/12/17 04:56:15;;;;;;;6.40;4.07;;;10.70;99.90;;;;;;5060718;28;20106;-37
2023/12/17 04:58:41;;;;;;;5.85;4.88;;;10.70;99.90;;;;;;5061145;28;20056;-37
2023/12/17 05:01:07;;;;;;;6.63;4.88;;;10.70;99.90;;;;;;5059478;28;20170;-36
2023/12/17 05:03:32;;;;;;;6.93;5.10;;;10.70;99.90;;;;;;5059175;28;20029;-37
2023/12/17 05:05:58;;;;;;;7.97;5.65;;;10.70;99.90;;;;;;5059260;28;20041;-37
2023/12/17 05:08:24;;;;;;;7.22;5.32;;;10.70;99.90;;;;;;5059622;28;20020;-37
2023/12/17 05:10:52;;;;;;;5.50;4.75;;;10.70;99.90;;;;;;5058793;28;20537;-37
2023/12/17 05:13:18;;;;;;;7.22;5.03;;;10.70;99.90;;;;;;5060132;28;20024;-37
2023/12/17 05:15:43;;;;;;;6.50;4.82;;;10.70;99.90;;;;;;5059413;28;20035;-40
2023/12/17 05:18:09;;;;;;;5.03;4.53;;;10.70;99.90;;;;;;5059894;28;20029;-37
2023/12/17 05:20:35;;;;;;;6.78;4.72;;;10.70;99.90;;;;;;5060270;28;20698;-37
2023/12/17 05:23:02;;;;;;;5.93;4.72;;;10.70;99.90;;;;;;5058942;28;20066;-37
2023/12/17 05:25:28;;;;;;;7.05;5.30;;;10.70;99.90;;;;;;5059871;28;20100;-37
2023/12/17 05:27:53;;;;;;;6.97;5.90;;;10.70;99.90;;;;;;5059753;28;20034;-37
2023/12/17 05:30:19;;;;;;;6.20;5.25;;;10.70;99.90;;;;;;5059896;28;20665;-37
2023/12/17 05:32:45;;;;;;;6.75;6.05;;;10.70;99.90;;;;;;5059911;28;20055;-36
2023/12/17 05:35:10;;;;;;;6.93;5.57;;;10.70;99.90;;;;;;5060036;28;20027;-37
2023/12/17 05:37:38;;;;;;;7.38;6.30;;;10.80;99.90;;;;;;5058913;28;20024;-36
2023/12/17 05:40:08;;;;;;;8.40;6.60;;;10.70;99.90;;;;;;5058863;28;20460;-36
2023/12/17 05:42:37;;;;;;;7.57;6.32;;;10.80;99.90;;;;;;5060460;28;20446;-37
2023/12/17 05:45:02;;;;;;;8.10;6.38;;;10.70;99.90;;;;;;5059040;28;20028;-36
2023/12/17 05:47:30;;;;;;;8.75;7.13;;;10.70;99.90;;;;;;5060200;28;20031;-37
2023/12/17 05:49:55;;;;;;;11.70;8.10;;;10.70;99.90;;;;;;5059344;28;20024;-37
2023/12/17 05:52:21;;;;;;;11.57;9.18;;;10.70;99.90;;;;;;5059093;28;20044;-37
2023/12/17 05:54:46;;;;;;;13.52;9.18;;;10.70;99.90;;;;;;5060145;28;20480;-37
2023/12/17 05:57:12;;;;;;;12.73;9.52;;;10.70;99.90;;;;;;5060024;28;20441;-37
2023/12/17 05:59:38;;;;;;;16.05;10.25;;;10.70;99.90;;;;;;5059277;28;20025;-37
2023/12/17 06:02:03;;;;;;;14.45;10.80;;;10.70;99.90;;;;;;5060051;28;20050;-36
2023/12/17 06:04:29;;;;;;;13.43;10.65;;;10.70;99.90;;;;;;5059214;28;20384;-37
2023/12/17 06:06:55;;;;;;;14.35;10.82;;;10.60;99.90;;;;;;5058826;28;20115;-36
2023/12/17 06:09:22;;;;;;;14.57;10.18;;;10.60;99.90;;;;;;5059700;28;20035;-36
2023/12/17 06:11:49;;;;;;;15.18;11.10;;;10.70;99.90;;;;;;5059026;28;20040;-36
2023/12/17 06:14:16;;;;;;;15.88;11.93;;;10.70;99.90;;;;;;5060610;28;20657;-36
2023/12/17 06:16:44;;;;;;;16.08;11.48;;;10.70;99.90;;;;;;5063474;28;20063;-36
2023/12/17 06:19:13;;;;;;;13.50;10.27;;;10.70;99.90;;;;;;5062672;28;20025;-37
2023/12/17 06:21:39;;;;;;;16.02;11.95;;;10.70;99.90;;;;;;5063162;28;20127;-36
2023/12/17 06:24:05;;;;;;;15.30;11.70;;;10.70;99.90;;;;;;5063948;28;20027;-36
2023/12/17 06:26:31;;;;;;;15.75;10.90;;;10.70;99.90;;;;;;5062496;28;20034;-37
2023/12/17 06:28:57;;;;;;;16.45;12.32;;;10.70;99.90;;;;;;5063332;28;20488;-37
2023/12/17 06:31:23;;;;;;;16.65;11.52;;;10.70;99.90;;;;;;5063532;28;20028;-37
2023/12/17 06:33:53;;;;;;;14.05;10.45;;;10.70;99.90;;;;;;5062918;28;20056;-42
2023/12/17 06:36:19;;;;;;;13.80;10.75;;;10.70;99.90;;;;;;5063459;28;20107;-36
2023/12/17 06:38:44;;;;;;;13.63;10.52;;;10.70;99.90;;;;;;5063170;28;20494;-37
2023/12/17 06:41:10;;;;;;;14.68;10.80;;;10.70;99.90;;;;;;5061698;28;20032;-36
2023/12/17 06:43:36;;;;;;;12.63;9.07;;;10.70;99.90;;;;;;5063711;28;20028;-37
2023/12/17 06:46:03;;;;;;;12.13;9.65;;;10.70;99.90;;;;;;5062441;28;20062;-37
2023/12/17 06:48:29;;;;;;;13.20;10.23;;;10.70;99.90;;;;;;5062297;28;20108;-37
2023/12/17 06:50:54;;;;;;;14.88;10.38;;;10.60;99.90;;;;;;5063373;28;20486;-37
2023/12/17 06:53:20;;;;;;;14.05;9.07;;;10.60;99.90;;;;;;5062570;28;20648;-37
2023/12/17 06:55:45;;;;;;;11.20;9.32;;;10.60;99.90;;;;;;5062321;28;20130;-36
2023/12/17 06:58:11;;;;;;;10.60;8.50;;;10.60;99.90;;;;;;5063152;28;20095;-36
2023/12/17 07:00:37;;;;;;;10.25;8.45;;;10.60;99.90;;;;;;5063445;28;20269;-36
2023/12/17 07:03:08;;;;;;;13.35;9.50;;;10.60;99.90;;;;;;5062024;28;20037;-37
2023/12/17 07:05:34;;;;;;;10.35;8.82;;;10.60;99.90;;;;;;5063274;28;20037;-36
2023/12/17 07:07:59;;;;;;;10.73;8.57;;;10.60;99.90;;;;;;5062597;28;20020;-36
2023/12/17 07:10:25;;;;;;;9.88;7.93;;;10.60;99.90;;;;;;5062679;28;20149;-48
2023/12/17 07:12:50;;;;;;;9.98;7.97;;;10.60;99.90;;;;;;5062155;28;20335;-37
2023/12/17 07:15:16;;;;;;;10.77;8.23;;;10.60;99.90;;;;;;5062203;28;20029;-37
2023/12/17 07:17:43;;;;;;;10.05;7.72;;;10.60;99.90;;;;;;5061748;28;20130;-37
2023/12/17 07:20:09;;;;;;;8.48;7.07;;;10.60;99.90;;;;;;5062457;28;20073;-40
2023/12/17 07:22:35;;;;;;;8.63;7.40;;;10.60;99.90;;;;;;5061032;28;20079;-37
2023/12/17 07:25:01;;;;;;;10.35;7.85;;;10.60;99.90;;;;;;5061793;28;20104;-37
2023/12/17 07:27:27;;;;;;;10.95;8.63;;;10.60;99.90;;;;;;5062592;28;20027;-36
2023/12/17 07:29:52;;;;;;;11.52;8.63;;;10.60;99.90;;;;;;5060822;28;20039;-36
2023/12/17 07:32:18;;;;;;;11.30;8.55;;;10.60;99.90;;;;;;5061942;28;20539;-37
2023/12/17 07:34:43;;;;;;;10.80;8.57;;;10.60;99.90;;;;;;5062219;28;20068;-37
2023/12/17 07:37:09;;;;;;;12.48;9.68;;;10.60;99.90;;;;;;5061351;28;20034;-37
2023/12/17 07:39:34;;;;;;;11.10;8.15;;;10.60;99.90;;;;;;5062729;28;20028;-37
2023/12/17 07:42:00;;;;;;;11.27;9.10;;;10.50;99.90;;;;;;5062328;28;20028;-37
2023/12/17 07:44:27;;;;;;;9.63;8.50;;;10.60;99.90;;;;;;5061394;28;20756;-37
2023/12/17 07:46:53;;;;;;;11.32;9.07;;;10.60;99.90;;;;;;5061303;28;20043;-37
2023/12/17 07:49:19;;;;;;;13.57;10.32;;;10.60;99.90;;;;;;5061937;28;20054;-37
2023/12/17 07:51:45;;;;;;;12.63;9.05;;;10.60;99.90;;;;;;5061451;28;20570;-36
2023/12/17 07:54:10;;;;;;;12.93;9.90;;;10.60;99.90;;;;;;5061570;28;20042;-36
2023/12/17 07:56:42;;;;;;;17.42;11.68;;;10.60;99.90;;;;;;5060236;28;20057;-37
2023/12/17 07:59:08;;;;;;;15.50;10.80;;;10.50;99.90;;;;;;5060267;28;20116;-37
2023/12/17 08:01:36;;;;;;;20.92;14.75;;;10.50;99.90;;;;;;5061012;28;20040;-37
2023/12/17 08:04:03;;;;;;;23.45;15.95;;;10.50;99.90;;;;;;5060664;28;20024;-36
2023/12/17 08:06:28;;;;;;;22.70;16.45;;;10.50;99.90;;;;;;5060854;28;20064;-36
2023/12/17 08:08:55;;;;;;;26.10;16.13;;;10.50;99.90;;;;;;5061402;28;20110;-37
2023/12/17 08:11:21;;;;;;;24.88;17.27;;;10.50;99.90;;;;;;5060971;28;20157;-39
2023/12/17 08:13:46;;;;;;;28.27;19.85;;;10.50;99.90;;;;;;5060040;28;20674;-37
2023/12/17 08:16:12;;;;;;;30.13;20.20;;;10.40;99.90;;;;;;5060850;28;20066;-37
2023/12/17 08:18:38;;;;;;;25.77;17.75;;;10.40;99.90;;;;;;5060181;28;20020;-37
2023/12/17 08:21:05;;;;;;;25.33;16.50;;;10.40;99.90;;;;;;5060934;28;20102;-35
2023/12/17 08:23:30;;;;;;;26.30;17.20;;;10.40;99.90;;;;;;5062326;28;20055;-38
2023/12/17 08:25:56;;;;;;;24.23;17.10;;;10.40;99.90;;;;;;5060418;28;20318;-41
2023/12/17 08:28:28;;;;;;;25.58;17.02;;;10.40;99.90;;;;;;5061539;28;20573;-37
2023/12/17 08:30:54;;;;;;;22.67;15.80;;;10.40;99.90;;;;;;5060574;28;20492;-36
2023/12/17 08:33:20;;;;;;;24.60;16.60;;;10.40;99.90;;;;;;5060861;28;20032;-36
2023/12/17 08:35:47;;;;;;;24.10;15.82;;;10.40;99.90;;;;;;5060925;28;20021;-36
2023/12/17 08:38:13;;;;;;;26.17;16.88;;;10.40;99.90;;;;;;5040885;28;20028;-36
2023/12/17 08:40:40;;;;;;;25.00;16.85;;;10.40;99.90;;;;;;5054922;28;20025;-37
2023/12/17 08:43:07;;;;;;;21.83;15.63;;;10.40;99.90;;;;;;5060491;28;20059;-36
2023/12/17 08:45:34;;;;;;;21.65;14.93;;;10.30;99.90;;;;;;5060685;28;20809;-36
2023/12/17 08:48:00;;;;;;;20.92;14.35;;;10.30;99.90;;;;;;5059812;28;20342;-36
2023/12/17 08:50:27;;;;;;;22.27;15.68;;;10.40;99.90;;;;;;5061493;28;20017;-35
2023/12/17 08:52:53;;;;;;;23.30;15.90;;;10.40;99.90;;;;;;5059694;28;20477;-36
2023/12/17 08:55:19;;;;;;;23.67;14.88;;;10.40;99.90;;;;;;5059126;28;20067;-36
2023/12/17 08:57:46;;;;;;;21.25;15.52;;;10.40;99.90;;;;;;5060150;28;20067;-36
2023/12/17 09:00:13;;;;;;;22.48;14.90;;;10.40;99.90;;;;;;5060597;28;20489;-36
2023/12/17 09:02:40;;;;;;;19.77;14.02;;;10.40;99.90;;;;;;5059811;28;20372;-36
2023/12/17 09:05:06;;;;;;;21.67;14.82;;;10.30;99.90;;;;;;5060217;28;20106;-36
2023/12/17 09:07:32;;;;;;;20.88;14.05;;;10.30;99.90;;;;;;5060189;28;20027;-37
2023/12/17 09:09:58;;;;;;;19.65;14.05;;;10.40;99.90;;;;;;5060584;28;20472;-37
2023/12/17 09:12:24;;;;;;;21.95;14.35;;;10.30;99.90;;;;;;5059444;28;20028;-36
2023/12/17 09:14:50;;;;;;;18.90;13.20;;;10.30;99.90;;;;;;5059579;28;20021;-36
2023/12/17 09:17:16;;;;;;;19.45;13.32;;;10.30;99.90;;;;;;5064473;28;20053;-37
2023/12/17 09:19:42;;;;;;;17.08;12.43;;;10.30;99.90;;;;;;5060574;28;20063;-36
2023/12/17 09:22:08;;;;;;;18.70;12.80;;;10.30;99.90;;;;;;5059358;28;20463;-53
2023/12/17 09:24:34;;;;;;;17.02;11.57;;;10.30;99.90;;;;;;5060882;28;20025;-38
2023/12/17 09:27:02;;;;;;;15.88;11.60;;;10.30;99.90;;;;;;5059909;28;20028;-36
2023/12/17 09:29:28;;;;;;;18.23;11.88;;;10.30;99.90;;;;;;5058436;28;20483;-37
2023/12/17 09:31:53;;;;;;;16.88;11.80;;;10.30;99.90;;;;;;5058230;28;20032;-37
2023/12/17 09:34:19;;;;;;;17.55;12.20;;;10.30;99.90;;;;;;5057848;28;20028;-39
2023/12/17 09:36:48;;;;;;;13.75;10.77;;;10.30;99.90;;;;;;5059565;28;20288;-37
2023/12/17 09:39:14;;;;;;;16.17;12.07;;;10.30;99.90;;;;;;5060281;28;20038;-36
2023/12/17 09:41:41;;;;;;;16.45;11.35;;;10.30;99.90;;;;;;5062423;28;20093;-37
2023/12/17 09:44:10;;;;;;;14.38;10.65;;;10.30;99.90;;;;;;5048193;28;20020;-37
2023/12/17 09:46:36;;;;;;;12.75;9.63;;;10.20;99.90;;;;;;5059992;28;20617;-37
2023/12/17 09:49:02;;;;;;;13.98;9.85;;;10.30;99.90;;;;;;5059267;28;20024;-39
2023/12/17 09:51:28;;;;;;;14.52;10.52;;;10.20;99.90;;;;;;5059264;28;20090;-35
2023/12/17 09:53:56;;;;;;;13.93;10.35;;;10.20;99.90;;;;;;5059479;28;20383;-37
2023/12/17 09:56:22;;;;;;;13.52;10.00;;;10.20;99.90;;;;;;5060350;28;20024;-36
2023/12/17 09:58:47;;;;;;;13.27;9.95;;;10.20;99.90;;;;;;5059532;28;20094;-37
2023/12/17 10:01:13;;;;;;;13.18;9.55;;;10.20;99.90;;;;;;5059547;28;20101;-37
2023/12/17 10:03:39;;;;;;;13.38;9.70;;;10.30;99.90;;;;;;5060318;28;20025;-37
2023/12/17 10:06:05;;;;;;;13.63;10.02;;;10.30;99.90;;;;;;5059850;28;20901;-36
2023/12/17 10:08:32;;;;;;;14.13;10.15;;;10.30;99.90;;;;;;5060000;28;20460;-37
2023/12/17 10:10:58;;;;;;;14.10;10.23;;;10.30;99.90;;;;;;5060282;28;20047;-37
2023/12/17 10:13:24;;;;;;;14.73;10.88;;;10.30;99.90;;;;;;5059482;28;20024;-36
2023/12/17 10:15:51;;;;;;;14.27;10.70;;;10.30;99.90;;;;;;5060912;28;20041;-37
2023/12/17 10:18:17;;;;;;;16.77;11.00;;;10.30;99.90;;;;;;5059517;28;20471;-36
2023/12/17 10:20:46;;;;;;;14.18;10.70;;;10.30;99.90;;;;;;5060604;28;20028;-37
2023/12/17 10:23:13;;;;;;;15.27;11.18;;;10.30;99.90;;;;;;5059783;28;20439;-36
2023/12/17 10:25:39;;;;;;;13.65;11.07;;;10.30;99.90;;;;;;5060165;28;20032;-36
2023/12/17 10:28:07;;;;;;;13.88;10.38;;;10.20;99.90;;;;;;5060931;28;20052;-41
2023/12/17 10:30:33;;;;;;;13.88;10.60;;;10.20;99.90;;;;;;5061313;28;20604;-37
2023/12/17 10:33:01;;;;;;;12.98;10.18;;;10.20;99.90;;;;;;5059075;28;20046;-37
2023/12/17 10:35:29;;;;;;;13.38;10.77;;;10.10;99.90;;;;;;5060101;28;20429;-37
2023/12/17 10:38:05;;;;;;;13.05;10.48;;;10.10;99.90;;;;;;5060728;28;20173;-36
2023/12/17 10:40:33;;;;;;;12.45;10.13;;;10.10;99.90;;;;;;5060279;28;20027;-35
2023/12/17 10:42:59;;;;;;;11.75;9.25;;;10.10;99.90;;;;;;5060669;28;20029;-36
2023/12/17 10:45:28;;;;;;;11.30;9.38;;;10.00;99.90;;;;;;5059931;28;20348;-36
2023/12/17 10:47:58;;;;;;;12.60;10.35;;;10.00;99.90;;;;;;5059230;28;20357;-43
2023/12/17 10:50:26;;;;;;;11.07;9.45;;;10.00;99.90;;;;;;5059765;28;20479;-37
2023/12/17 10:52:54;;;;;;;11.93;9.45;;;10.00;99.90;;;;;;5059044;28;20119;-37
2023/12/17 10:55:22;;;;;;;12.02;9.70;;;9.90;99.90;;;;;;5058645;28;20460;-36
2023/12/17 10:58:09;;;;;;;11.48;9.35;;;9.90;99.90;;;;;;5059819;28;20029;-37
2023/12/17 11:00:45;;;;;;;11.52;8.90;;;9.90;99.90;;;;;;5061125;28;20064;-36
2023/12/17 11:03:13;;;;;;;11.23;9.27;;;9.90;99.90;;;;;;5043084;28;20025;-37
2023/12/17 11:05:57;;;;;;;12.15;10.15;;;9.80;99.90;;;;;;5058904;28;20888;-37
2023/12/17 11:08:24;;;;;;;12.45;9.70;;;9.80;99.90;;;;;;5052908;28;20146;-37
2023/12/17 11:10:50;;;;;;;13.25;10.30;;;9.80;99.90;;;;;;5061505;28;20063;-36
2023/12/17 11:13:19;;;;;;;13.00;10.80;;;9.80;99.90;;;;;;5061604;28;20039;-43
2023/12/17 11:15:45;;;;;;;11.95;9.82;;;9.80;99.90;;;;;;5060352;28;20543;-37
2023/12/17 11:18:14;;;;;;;12.75;9.88;;;9.80;99.90;;;;;;5059466;28;20032;-36
2023/12/17 11:20:45;;;;;;;13.23;10.77;;;9.80;99.90;;;;;;5060862;28;20024;-36
2023/12/17 11:23:10;;;;;;;12.75;10.50;;;9.80;99.90;;;;;;5061008;28;20115;-36
2023/12/17 11:25:36;;;;;;;13.60;10.48;;;9.80;99.90;;;;;;5062587;28;20103;-36
2023/12/17 11:28:02;;;;;;;14.60;11.50;;;9.80;99.90;;;;;;5062580;28;20891;-37
2023/12/17 11:30:32;;;;;;;12.77;10.35;;;9.80;99.90;;;;;;5061848;28;20160;-37
2023/12/17 11:32:59;;;;;;;14.80;11.32;;;9.80;99.90;;;;;;5062542;28;20029;-37
2023/12/17 11:35:30;;;;;;;17.00;13.13;;;9.90;99.90;;;;;;5062733;28;20017;-37
2023/12/17 11:37:57;;;;;;;15.93;12.25;;;9.90;99.90;;;;;;5051622;28;20035;-36
2023/12/17 11:40:23;;;;;;;17.25;13.00;;;10.00;99.90;;;;;;5063256;28;20086;-37
2023/12/17 11:42:59;;;;;;;16.77;13.80;;;10.00;99.90;;;;;;5061676;28;20049;-37
2023/12/17 11:45:51;;;;;;;24.42;15.73;;;10.00;99.90;;;;;;5062241;28;20024;-36
2023/12/17 11:48:21;;;;;;;21.80;14.55;;;10.10;99.90;;;;;;5050703;28;20041;-37
2023/12/17 11:50:50;;;;;;;17.23;13.85;;;10.10;99.90;;;;;;5061805;28;20073;-37
2023/12/17 11:53:19;;;;;;;19.02;14.63;;;10.10;99.90;;;;;;5062289;28;20052;-37
2023/12/17 11:55:48;;;;;;;19.77;14.63;;;10.10;99.90;;;;;;5062729;28;20490;-36
2023/12/17 11:58:15;;;;;;;23.85;16.25;;;10.20;99.90;;;;;;5061844;28;20743;-36
2023/12/17 12:00:43;;;;;;;21.55;15.65;;;10.20;99.90;;;;;;5061560;28;20027;-36
2023/12/17 12:03:08;;;;;;;17.60;13.52;;;10.10;99.90;;;;;;5061857;28;20272;-37
2023/12/17 12:05:34;;;;;;;18.15;13.40;;;10.10;99.90;;;;;;5061282;28;20085;-37
2023/12/17 12:08:00;;;;;;;17.63;12.95;;;10.10;99.90;;;;;;5061321;28;20083;-37
2023/12/17 12:10:26;;;;;;;20.48;13.77;;;10.20;99.90;;;;;;5063006;28;20086;-37
2023/12/17 12:13:02;;;;;;;18.48;13.40;;;10.20;99.90;;;;;;5061342;28;20075;-38
2023/12/17 12:15:28;;;;;;;21.42;14.90;;;10.20;99.90;;;;;;5041883;28;20085;-37
2023/12/17 12:17:53;;;;;;;17.52;12.75;;;10.20;99.90;;;;;;5055838;28;20205;-36
2023/12/17 12:20:37;;;;;;;19.00;13.38;;;10.20;99.90;;;;;;5062042;28;20032;-37
2023/12/17 12:23:09;;;;;;;21.00;14.32;;;10.30;99.90;;;;;;5060651;28;20496;-37
2023/12/17 12:25:38;;;;;;;18.95;13.20;;;10.20;99.90;;;;;;5060490;28;20033;-37
2023/12/17 12:28:06;;;;;;;20.30;14.57;;;10.20;99.90;;;;;;5060265;28;20039;-36
2023/12/17 12:30:32;;;;;;;19.63;14.25;;;10.20;99.90;;;;;;5060401;28;20280;-40
2023/12/17 12:33:20;;;;;;;19.05;14.43;;;10.10;99.90;;;;;;5059331;28;20027;-36
2023/12/17 12:35:48;;;;;;;21.55;14.75;;;10.10;99.90;;;;;;5060506;28;20029;-37